createdAt,value
2022-12-29T00:01:58.754Z,10.82
2022-12-29T00:04:25.593Z,12.95
2022-12-29T00:06:54.292Z,10.50
2022-12-29T00:09:21.378Z,10.00
2022-12-29T00:11:48.301Z,10.80
2022-12-29T00:14:38.233Z,8.95
2022-12-29T00:17:04.914Z,9.48
2022-12-29T00:19:50.107Z,8.75
2022-12-29T00:22:35.433Z,8.18
2022-12-29T00:25:02.255Z,7.47
2022-12-29T00:27:48.693Z,8.00
2022-12-29T00:30:42.184Z,9.75
2022-12-29T00:33:34.983Z,9.73
2022-12-29T00:36:25.350Z,9.80
2022-12-29T00:39:18.539Z,9.60
2022-12-29T00:42:03.801Z,9.65
2022-12-29T00:44:30.505Z,10.10
2022-12-29T00:46:57.485Z,9.93
2022-12-29T00:49:33.202Z,10.13
2022-12-29T00:52:07.398Z,10.20
2022-12-29T00:54:36.408Z,9.93
2022-12-29T00:57:04.270Z,10.57
2022-12-29T00:59:31.050Z,11.18
2022-12-29T01:01:58.787Z,10.65
2022-12-29T01:04:27.887Z,10.70
2022-12-29T01:06:54.739Z,11.65
2022-12-29T01:09:40.973Z,13.18
2022-12-29T01:12:09.587Z,11.40
2022-12-29T01:14:36.951Z,11.30
2022-12-29T01:17:04.006Z,11.95
2022-12-29T01:19:30.793Z,11.77
2022-12-29T01:21:57.584Z,12.75
2022-12-29T01:24:25.172Z,13.40
2022-12-29T01:26:51.741Z,13.23
2022-12-29T01:29:18.775Z,11.68
2022-12-29T01:31:45.572Z,12.50
2022-12-29T01:34:12.616Z,12.52
2022-12-29T01:36:39.508Z,13.07
2022-12-29T01:39:06.542Z,12.73
2022-12-29T01:41:34.111Z,13.80
2022-12-29T01:44:02.624Z,11.55
2022-12-29T01:46:34.261Z,12.15
2022-12-29T01:49:09.975Z,11.30
2022-12-29T01:51:49.559Z,10.00
2022-12-29T01:54:22.072Z,9.90
2022-12-29T01:56:49.027Z,9.50
2022-12-29T01:59:23.823Z,10.40
2022-12-29T02:01:52.124Z,8.95
2022-12-29T02:04:19.097Z,9.20
2022-12-29T02:06:54.328Z,9.25
2022-12-29T02:09:21.370Z,9.52
2022-12-29T02:11:48.598Z,8.93
2022-12-29T02:14:16.136Z,9.55
2022-12-29T02:17:19.596Z,8.95
2022-12-29T02:20:13.099Z,8.80
2022-12-29T02:22:48.833Z,8.88
2022-12-29T02:26:03.271Z,8.35
2022-12-29T02:29:09.773Z,8.20
2022-12-29T02:31:39.714Z,8.25
2022-12-29T02:34:25.061Z,9.13
2022-12-29T02:37:12.853Z,7.90
2022-12-29T02:39:51.295Z,8.07
2022-12-29T02:42:40.947Z,8.48
2022-12-29T02:45:22.565Z,7.00
2022-12-29T02:48:05.027Z,7.30
2022-12-29T02:50:40.126Z,7.40
2022-12-29T02:53:11.961Z,7.57
2022-12-29T02:55:38.690Z,7.30
2022-12-29T02:58:21.387Z,7.13
2022-12-29T03:01:22.139Z,6.55
2022-12-29T03:04:19.607Z,7.22
2022-12-29T03:07:10.357Z,6.90
2022-12-29T03:09:48.767Z,5.60
2022-12-29T03:12:49.402Z,6.05
2022-12-29T03:15:50.650Z,6.47
2022-12-29T03:18:26.500Z,6.88
2022-12-29T03:21:01.443Z,6.65
2022-12-29T03:23:29.571Z,6.72
2022-12-29T03:26:00.428Z,7.05
2022-12-29T03:28:36.734Z,6.65
2022-12-29T03:31:05.308Z,7.05
2022-12-29T03:33:33.481Z,7.00
2022-12-29T03:36:03.871Z,6.68
2022-12-29T03:38:46.294Z,6.35
2022-12-29T03:41:19.805Z,5.97
2022-12-29T03:43:47.053Z,6.55
2022-12-29T03:46:13.982Z,5.20
2022-12-29T03:48:40.913Z,4.80
2022-12-29T03:51:07.624Z,6.68
2022-12-29T03:53:34.243Z,4.60
2022-12-29T03:56:01.060Z,4.35
2022-12-29T03:58:27.568Z,4.18
2022-12-29T04:00:54.151Z,4.00
2022-12-29T04:03:20.858Z,4.07
2022-12-29T04:05:47.597Z,3.33
2022-12-29T04:08:14.409Z,4.30
2022-12-29T04:10:41.467Z,4.43
2022-12-29T04:13:08.159Z,4.93
2022-12-29T04:15:35.518Z,5.55
2022-12-29T04:18:02.339Z,5.60
2022-12-29T04:20:47.468Z,6.40
2022-12-29T04:23:14.252Z,5.57
2022-12-29T04:25:40.953Z,5.82
2022-12-29T04:28:08.945Z,6.05
2022-12-29T04:30:35.823Z,5.60
2022-12-29T04:33:02.522Z,5.85
2022-12-29T04:35:29.214Z,6.15
2022-12-29T04:37:56.074Z,6.47
2022-12-29T04:40:24.242Z,6.82
2022-12-29T04:42:51.762Z,8.23
2022-12-29T04:45:18.809Z,7.20
2022-12-29T04:47:45.491Z,8.05
2022-12-29T04:50:12.397Z,8.55
2022-12-29T04:52:39.219Z,8.80
2022-12-29T04:55:07.026Z,9.02
2022-12-29T04:57:34.190Z,6.95
2022-12-29T05:00:00.980Z,5.43
2022-12-29T05:02:27.951Z,5.05
2022-12-29T05:04:54.898Z,5.28
2022-12-29T05:07:22.120Z,4.90
2022-12-29T05:09:55.327Z,5.72
2022-12-29T05:12:34.691Z,4.00
2022-12-29T05:15:03.631Z,3.80
2022-12-29T05:17:30.714Z,3.20
2022-12-29T05:19:57.788Z,3.42
2022-12-29T05:22:24.536Z,3.72
2022-12-29T05:24:51.159Z,2.80
2022-12-29T05:27:17.936Z,2.60
2022-12-29T05:29:44.646Z,2.67
2022-12-29T05:32:11.300Z,2.35
2022-12-29T05:34:38.255Z,2.03
2022-12-29T05:37:05.307Z,2.90
2022-12-29T05:39:31.961Z,1.75
2022-12-29T05:41:58.631Z,1.75
2022-12-29T05:44:25.523Z,2.20
2022-12-29T05:46:52.376Z,2.08
2022-12-29T05:49:19.095Z,2.80
2022-12-29T05:51:45.943Z,4.00
2022-12-29T05:54:12.645Z,2.03
2022-12-29T05:56:39.345Z,2.40
2022-12-29T05:59:06.136Z,1.05
2022-12-29T06:01:34.454Z,1.75
2022-12-29T06:04:01.869Z,1.13
2022-12-29T06:06:28.542Z,0.90
2022-12-29T06:08:55.524Z,1.67
2022-12-29T06:11:22.036Z,1.27
2022-12-29T06:13:48.904Z,2.00
2022-12-29T06:16:15.569Z,1.33
2022-12-29T06:18:42.494Z,1.50
2022-12-29T06:21:09.702Z,1.42
2022-12-29T06:23:36.978Z,1.00
2022-12-29T06:26:03.687Z,1.48
2022-12-29T06:28:30.739Z,3.70
2022-12-29T06:30:58.373Z,2.10
2022-12-29T06:33:25.228Z,3.35
2022-12-29T06:35:52.125Z,5.18
2022-12-29T06:38:19.127Z,2.08
2022-12-29T06:40:46.114Z,2.78
2022-12-29T06:43:13.012Z,3.95
2022-12-29T06:45:41.511Z,4.22
2022-12-29T06:48:08.829Z,1.45
2022-12-29T06:50:35.385Z,2.10
2022-12-29T06:53:02.175Z,1.52
2022-12-29T06:55:29.190Z,0.95
2022-12-29T06:57:59.540Z,1.35
2022-12-29T07:00:26.437Z,1.05
2022-12-29T07:02:53.241Z,3.63
2022-12-29T07:05:20.682Z,1.60
2022-12-29T07:07:47.317Z,1.10
2022-12-29T07:10:13.970Z,2.10
2022-12-29T07:12:40.523Z,2.17
2022-12-29T07:15:07.712Z,1.58
2022-12-29T07:17:34.315Z,2.08
2022-12-29T07:20:00.962Z,2.20
2022-12-29T07:22:27.549Z,3.40
2022-12-29T07:24:54.141Z,2.72
2022-12-29T07:27:20.729Z,2.33
2022-12-29T07:29:47.341Z,1.55
2022-12-29T07:32:14.084Z,3.58
2022-12-29T07:34:40.842Z,2.63
2022-12-29T07:37:07.532Z,4.43
2022-12-29T07:39:34.288Z,3.10
2022-12-29T07:42:04.773Z,1.95
2022-12-29T07:44:31.837Z,2.08
2022-12-29T07:46:58.941Z,4.00
2022-12-29T07:49:26.023Z,3.20
2022-12-29T07:51:53.893Z,2.60
2022-12-29T07:54:20.581Z,2.53
2022-12-29T07:56:47.475Z,1.15
2022-12-29T07:59:14.162Z,1.95
2022-12-29T08:01:40.914Z,1.98
2022-12-29T08:04:08.171Z,2.72
2022-12-29T08:06:34.853Z,2.45
2022-12-29T08:09:09.924Z,2.88
2022-12-29T08:11:39.508Z,1.85
2022-12-29T08:14:06.337Z,2.17
2022-12-29T08:16:33.467Z,1.38
2022-12-29T08:19:00.372Z,1.20
2022-12-29T08:21:29.154Z,2.42
2022-12-29T08:23:55.947Z,1.45
2022-12-29T08:26:22.777Z,3.35
2022-12-29T08:28:58.295Z,3.50
2022-12-29T08:31:25.246Z,3.88
2022-12-29T08:33:52.457Z,7.75
2022-12-29T08:36:19.128Z,1.27
2022-12-29T08:38:45.972Z,2.90
2022-12-29T08:41:12.614Z,2.22
2022-12-29T08:43:42.073Z,3.42
2022-12-29T08:46:18.442Z,3.05
2022-12-29T08:48:45.150Z,1.38
2022-12-29T08:51:11.729Z,2.60
2022-12-29T08:53:38.304Z,3.30
2022-12-29T08:56:05.834Z,2.10
2022-12-29T08:58:33.170Z,3.45
2022-12-29T09:01:00.062Z,3.95
2022-12-29T09:03:55.081Z,5.07
2022-12-29T09:06:15.282Z,3.90
2022-12-29T09:08:41.858Z,2.80
2022-12-29T09:11:18.464Z,3.03
2022-12-29T09:13:45.241Z,4.15
2022-12-29T09:16:11.953Z,3.58
2022-12-29T09:18:38.713Z,4.82
2022-12-29T09:21:06.776Z,3.28
2022-12-29T09:23:34.583Z,2.38
2022-12-29T09:26:01.365Z,2.20
2022-12-29T09:28:29.811Z,4.38
2022-12-29T09:30:57.547Z,2.38
2022-12-29T09:33:25.050Z,3.25
2022-12-29T09:35:54.071Z,2.65
2022-12-29T09:38:21.477Z,3.75
2022-12-29T09:40:53.924Z,2.88
2022-12-29T09:43:32.597Z,2.20
2022-12-29T09:46:28.905Z,2.97
2022-12-29T09:49:05.431Z,4.70
2022-12-29T09:51:33.308Z,2.95
2022-12-29T09:54:14.540Z,3.55
2022-12-29T09:56:41.229Z,6.10
2022-12-29T09:59:15.620Z,6.22
2022-12-29T10:02:00.987Z,2.83
2022-12-29T10:04:29.177Z,3.58
2022-12-29T10:07:28.988Z,3.20
2022-12-29T10:10:27.877Z,2.50
2022-12-29T10:13:30.508Z,4.90
2022-12-29T10:16:21.029Z,4.45
2022-12-29T10:19:02.913Z,2.70
2022-12-29T10:22:03.291Z,2.90
2022-12-29T10:24:31.850Z,2.72
2022-12-29T10:27:00.258Z,5.80
2022-12-29T10:29:37.358Z,14.27
2022-12-29T10:32:08.075Z,4.20
2022-12-29T10:34:38.281Z,10.80
2022-12-29T10:37:42.657Z,4.03
2022-12-29T10:40:38.680Z,4.22
2022-12-29T10:43:32.099Z,1.90
2022-12-29T10:46:04.991Z,1.50
2022-12-29T10:48:33.951Z,3.22
2022-12-29T10:51:04.223Z,3.10
2022-12-29T10:53:46.372Z,4.10
2022-12-29T10:56:28.749Z,3.30
2022-12-29T10:58:58.290Z,2.95
2022-12-29T11:01:32.079Z,2.53
2022-12-29T11:04:13.635Z,2.45
2022-12-29T11:06:40.748Z,2.67
2022-12-29T11:09:21.393Z,3.17
2022-12-29T11:11:48.245Z,2.33
2022-12-29T11:14:20.969Z,4.68
2022-12-29T11:17:02.185Z,8.07
2022-12-29T11:19:40.554Z,2.42
2022-12-29T11:22:26.639Z,6.10
2022-12-29T11:24:55.579Z,5.95
2022-12-29T11:27:27.396Z,3.88
2022-12-29T11:29:55.671Z,6.20
2022-12-29T11:32:29.073Z,7.00
2022-12-29T11:35:02.080Z,3.97
2022-12-29T11:37:40.058Z,5.85
2022-12-29T11:40:20.329Z,5.30
2022-12-29T11:42:56.655Z,5.78
2022-12-29T11:45:30.081Z,4.72
2022-12-29T11:48:06.704Z,6.45
2022-12-29T11:50:36.468Z,6.10
2022-12-29T11:53:18.115Z,8.30
2022-12-29T11:56:10.961Z,3.22
2022-12-29T11:58:39.466Z,3.38
2022-12-29T12:01:08.327Z,4.82
2022-12-29T12:03:41.686Z,6.90
2022-12-29T12:06:15.913Z,6.07
2022-12-29T12:09:15.651Z,9.05
2022-12-29T12:11:44.499Z,12.75
2022-12-29T12:14:33.056Z,3.63
2022-12-29T12:17:13.136Z,6.78
2022-12-29T12:19:47.096Z,4.70
2022-12-29T12:22:38.392Z,4.40
2022-12-29T12:25:32.644Z,5.60
2022-12-29T12:28:22.778Z,5.18
2022-12-29T12:30:56.019Z,5.15
2022-12-29T12:33:28.507Z,1.63
2022-12-29T12:36:23.202Z,4.22
2022-12-29T12:39:00.972Z,6.18
2022-12-29T12:42:13.424Z,4.15
2022-12-29T12:44:52.361Z,5.63
2022-12-29T12:47:44.830Z,4.18
2022-12-29T12:50:25.434Z,4.40
2022-12-29T12:53:20.612Z,2.10
2022-12-29T12:56:01.624Z,2.40
2022-12-29T12:58:49.347Z,2.63
2022-12-29T13:01:34.049Z,2.03
2022-12-29T13:04:25.323Z,4.47
2022-12-29T13:06:58.057Z,3.05
2022-12-29T13:09:45.795Z,3.67
2022-12-29T13:12:20.308Z,3.58
2022-12-29T13:14:55.533Z,2.97
2022-12-29T13:17:28.925Z,2.95
2022-12-29T13:20:22.094Z,1.98
2022-12-29T13:22:58.364Z,6.10
2022-12-29T13:25:38.505Z,3.15
2022-12-29T13:28:21.282Z,3.08
2022-12-29T13:31:16.817Z,3.40
2022-12-29T13:34:19.427Z,3.03
2022-12-29T13:36:52.961Z,2.97
2022-12-29T13:39:43.188Z,3.60
2022-12-29T13:42:11.627Z,5.25
2022-12-29T13:44:54.325Z,4.45
2022-12-29T13:47:29.715Z,3.50
2022-12-29T13:49:58.216Z,3.78
2022-12-29T13:53:03.176Z,3.50
2022-12-29T13:55:48.247Z,4.78
2022-12-29T13:58:40.694Z,4.35
2022-12-29T14:01:25.479Z,3.55
2022-12-29T14:03:58.215Z,2.78
2022-12-29T14:06:32.859Z,3.75
2022-12-29T14:09:00.791Z,6.30
2022-12-29T14:11:37.130Z,1.80
2022-12-29T14:14:22.578Z,6.30
2022-12-29T14:16:50.244Z,10.27
2022-12-29T14:19:24.534Z,5.22
2022-12-29T14:21:58.715Z,5.25
2022-12-29T14:24:37.309Z,4.38
2022-12-29T14:27:13.310Z,6.93
2022-12-29T14:29:40.243Z,4.80
2022-12-29T14:32:32.601Z,3.80
2022-12-29T14:35:02.127Z,5.53
2022-12-29T14:37:31.347Z,4.90
2022-12-29T14:40:23.849Z,13.73
2022-12-29T14:42:52.900Z,6.93
2022-12-29T14:45:19.834Z,4.50
2022-12-29T14:47:48.669Z,6.72
2022-12-29T14:50:24.910Z,7.13
2022-12-29T14:53:00.021Z,3.17
2022-12-29T14:55:32.897Z,3.47
2022-12-29T14:58:02.815Z,5.40
2022-12-29T15:00:33.679Z,4.50
2022-12-29T15:03:05.899Z,3.97
2022-12-29T15:06:09.121Z,6.68
2022-12-29T15:08:47.889Z,6.80
2022-12-29T15:11:41.996Z,4.82
2022-12-29T15:14:29.698Z,3.58
2022-12-29T15:16:57.349Z,7.85
2022-12-29T15:19:26.087Z,5.47
2022-12-29T15:21:56.811Z,8.90
2022-12-29T15:24:24.733Z,4.82
2022-12-29T15:26:53.504Z,5.75
2022-12-29T15:29:37.132Z,5.22
2022-12-29T15:32:17.357Z,4.85
2022-12-29T15:34:46.251Z,5.47
2022-12-29T15:37:19.937Z,7.45
2022-12-29T15:39:47.729Z,4.97
2022-12-29T15:42:22.849Z,4.68
2022-12-29T15:44:57.745Z,5.75
2022-12-29T15:47:31.731Z,5.63
2022-12-29T15:50:02.215Z,5.63
2022-12-29T15:52:30.659Z,4.75
2022-12-29T15:55:02.324Z,5.15
2022-12-29T15:57:42.351Z,5.38
2022-12-29T16:00:48.387Z,9.65
2022-12-29T16:03:17.000Z,9.05
2022-12-29T16:05:55.232Z,4.60
2022-12-29T16:08:26.856Z,7.88
2022-12-29T16:10:57.120Z,7.80
2022-12-29T16:13:36.827Z,6.82
2022-12-29T16:16:21.882Z,6.45
2022-12-29T16:18:55.209Z,7.65
2022-12-29T16:21:33.027Z,4.55
2022-12-29T16:24:15.703Z,7.32
2022-12-29T16:26:49.035Z,6.72
2022-12-29T16:29:16.868Z,6.43
2022-12-29T16:32:01.801Z,7.25
2022-12-29T16:34:34.760Z,8.27
2022-12-29T16:37:03.803Z,7.68
2022-12-29T16:39:40.262Z,8.05
2022-12-29T16:42:50.613Z,5.28
2022-12-29T16:45:21.546Z,7.13
2022-12-29T16:48:01.083Z,7.50
2022-12-29T16:50:28.979Z,7.53
2022-12-29T16:52:55.742Z,6.82
2022-12-29T16:55:25.491Z,7.00
2022-12-29T16:57:56.557Z,5.70
2022-12-29T17:00:35.879Z,6.15
2022-12-29T17:03:04.301Z,7.82
2022-12-29T17:05:31.069Z,9.30
2022-12-29T17:08:02.049Z,9.15
2022-12-29T17:10:48.984Z,8.60
2022-12-29T17:13:15.704Z,6.00
2022-12-29T17:15:42.500Z,7.10
2022-12-29T17:18:13.857Z,7.13
2022-12-29T17:20:40.824Z,4.75
2022-12-29T17:23:18.462Z,7.13
2022-12-29T17:25:49.402Z,7.43
2022-12-29T17:28:25.223Z,5.13
2022-12-29T17:30:54.702Z,8.52
2022-12-29T17:33:21.652Z,7.40
2022-12-29T17:35:54.826Z,5.97
2022-12-29T17:38:27.794Z,8.18
2022-12-29T17:40:54.554Z,9.55
2022-12-29T17:43:21.667Z,8.70
2022-12-29T17:45:53.932Z,15.10
2022-12-29T17:48:21.440Z,6.47
2022-12-29T17:50:49.943Z,8.88
2022-12-29T17:53:21.794Z,9.88
2022-12-29T17:55:48.454Z,8.63
2022-12-29T17:58:24.449Z,6.28
2022-12-29T18:00:53.832Z,10.90
2022-12-29T18:03:30.467Z,9.77
2022-12-29T18:05:58.021Z,7.68
2022-12-29T18:08:24.792Z,9.20
2022-12-29T18:10:53.781Z,8.43
2022-12-29T18:13:40.341Z,6.93
2022-12-29T18:16:13.598Z,11.80
2022-12-29T18:18:40.388Z,9.20
2022-12-29T18:21:11.239Z,9.38
2022-12-29T18:23:40.086Z,10.15
2022-12-29T18:26:20.762Z,7.75
2022-12-29T18:28:51.334Z,10.38
2022-12-29T18:31:21.481Z,6.38
2022-12-29T18:33:49.641Z,6.35
2022-12-29T18:36:18.173Z,6.32
2022-12-29T18:38:45.062Z,6.50
2022-12-29T18:41:22.737Z,6.22
2022-12-29T18:43:50.295Z,6.80
2022-12-29T18:46:22.431Z,7.47
2022-12-29T18:48:50.249Z,3.95
2022-12-29T18:51:19.602Z,4.55
2022-12-29T18:53:47.237Z,6.43
2022-12-29T18:56:14.090Z,7.55
2022-12-29T18:58:40.988Z,8.18
2022-12-29T19:01:17.077Z,6.93
2022-12-29T19:03:43.811Z,0.93
2022-12-29T19:06:10.482Z,2.03
2022-12-29T19:08:37.078Z,1.80
2022-12-29T19:11:03.774Z,1.92
2022-12-29T19:13:30.488Z,2.08
2022-12-29T19:15:57.819Z,2.72
2022-12-29T19:18:44.221Z,3.17
2022-12-29T19:21:11.758Z,1.58
2022-12-29T19:23:38.428Z,2.88
2022-12-29T19:26:05.259Z,1.42
2022-12-29T19:28:32.169Z,3.42
2022-12-29T19:31:00.466Z,3.47
2022-12-29T19:33:28.243Z,1.08
2022-12-29T19:36:00.750Z,2.35
2022-12-29T19:38:27.586Z,4.20
2022-12-29T19:40:54.318Z,2.38
2022-12-29T19:43:20.945Z,4.47
2022-12-29T19:45:52.599Z,2.53
2022-12-29T19:48:20.561Z,4.50
2022-12-29T19:50:54.338Z,4.53
2022-12-29T19:53:21.186Z,3.22
2022-12-29T19:55:48.203Z,5.20
2022-12-29T19:58:18.302Z,5.53
2022-12-29T20:00:49.847Z,3.03
2022-12-29T20:03:16.983Z,3.22
2022-12-29T20:05:49.029Z,3.85
2022-12-29T20:08:15.883Z,5.88
2022-12-29T20:10:42.562Z,6.70
2022-12-29T20:13:11.990Z,4.57
2022-12-29T20:15:43.361Z,4.70
2022-12-29T20:18:13.786Z,5.95
2022-12-29T20:20:48.420Z,4.32
2022-12-29T20:23:15.148Z,5.82
2022-12-29T20:25:45.125Z,4.72
2022-12-29T20:28:12.175Z,5.30
2022-12-29T20:30:41.605Z,3.50
2022-12-29T20:33:08.908Z,5.30
2022-12-29T20:35:39.042Z,7.65
2022-12-29T20:38:06.245Z,3.28
2022-12-29T20:40:46.595Z,4.43
2022-12-29T20:43:15.387Z,4.63
2022-12-29T20:45:43.874Z,5.15
2022-12-29T20:48:11.290Z,7.10
2022-12-29T20:50:40.734Z,6.40
2022-12-29T20:53:07.571Z,5.80
2022-12-29T20:55:38.033Z,5.88
2022-12-29T20:58:24.812Z,8.32
2022-12-29T21:00:52.412Z,5.53
2022-12-29T21:03:19.666Z,5.10
2022-12-29T21:05:46.690Z,9.73
2022-12-29T21:08:13.639Z,7.63
2022-12-29T21:10:40.363Z,7.43
2022-12-29T21:13:07.259Z,5.47
2022-12-29T21:15:34.316Z,7.70
2022-12-29T21:18:01.018Z,9.55
2022-12-29T21:20:31.661Z,8.32
2022-12-29T21:23:00.674Z,10.32
2022-12-29T21:25:36.953Z,6.75
2022-12-29T21:28:09.540Z,20.05
2022-12-29T21:30:39.831Z,12.02
2022-12-29T21:33:06.677Z,9.75
2022-12-29T21:35:39.700Z,11.80
2022-12-29T21:38:13.020Z,8.88
2022-12-29T21:40:40.533Z,16.70
2022-12-29T21:43:07.826Z,9.82
2022-12-29T21:45:34.570Z,18.02
2022-12-29T21:48:23.677Z,33.08
2022-12-29T21:51:14.594Z,11.98
2022-12-29T21:53:43.893Z,10.98
2022-12-29T21:56:18.960Z,14.35
2022-12-29T21:59:06.777Z,7.68
2022-12-29T22:01:54.671Z,7.85
2022-12-29T22:04:42.200Z,9.23
2022-12-29T22:07:29.146Z,7.60
2022-12-29T22:10:15.770Z,9.52
2022-12-29T22:12:57.696Z,6.88
2022-12-29T22:15:24.955Z,5.95
2022-12-29T22:17:54.461Z,8.50
2022-12-29T22:20:26.965Z,12.93
2022-12-29T22:22:54.485Z,6.88
2022-12-29T22:25:22.039Z,12.40
2022-12-29T22:27:55.738Z,11.50
2022-12-29T22:30:26.623Z,13.45
2022-12-29T22:32:53.219Z,9.35
2022-12-29T22:35:20.367Z,8.57
2022-12-29T22:37:47.231Z,9.43
2022-12-29T22:40:14.090Z,11.15
2022-12-29T22:42:40.821Z,11.27
2022-12-29T22:45:08.391Z,10.38
2022-12-29T22:51:33.255Z,11.07
2022-12-29T22:54:11.528Z,15.95
2022-12-29T22:57:09.457Z,11.23
2022-12-29T22:59:43.044Z,7.95
2022-12-29T23:02:10.354Z,8.65
2022-12-29T23:07:24.055Z,10.73
2022-12-29T23:09:51.529Z,10.32
2022-12-29T23:12:18.470Z,7.03
2022-12-29T23:14:45.404Z,13.10
2022-12-29T23:17:12.192Z,7.30
2022-12-29T23:19:48.031Z,8.82
2022-12-29T23:22:15.031Z,11.25
2022-12-29T23:24:41.768Z,13.10
2022-12-29T23:27:08.452Z,8.25
2022-12-29T23:29:35.199Z,10.00
2022-12-29T23:32:01.987Z,11.38
2022-12-29T23:34:28.609Z,7.05
2022-12-29T23:36:55.419Z,7.82
2022-12-29T23:39:26.160Z,12.98
2022-12-29T23:41:53.207Z,10.23
2022-12-29T23:44:19.980Z,11.77
2022-12-29T23:46:46.801Z,11.30
2022-12-29T23:49:13.712Z,10.32
2022-12-29T23:51:40.423Z,9.50
2022-12-29T23:54:07.511Z,12.93
2022-12-29T23:56:34.323Z,8.80
2022-12-29T23:59:03.925Z,8.93
